Terminal Aerodrome Forecast
Issued by NWS Jackson, MS

Home | Current Version | Previous Version | Text Only | Print | Product List | Glossary On
Versions: 1 2 3 4 5 6 7 8 9 10 11 12 13 14 15
140
FTUS44 KJAN 141722
TAFMEI
TAF
KMEI 141722Z 1418/1518 18010KT P6SM SKC
     FM150500 16009KT P6SM OVC025
     FM150700 18008KT P6SM VCSH OVC015=

USA.gov is the U.S. government's official web portal to all federal, state and local government web resources and services.